• Join FlightAware (Why Join?)
  • Login
  • US Flag 
12:02AM EDT


 

Airport Tracker/Info


-or-


 

Live Flight TrackerFlight Track Log ✈ SWA1834 ✈ 31-May-2012 ✈ KSMF - KDEN

Flight Track Log - Related Links

Times and Time Zones

All times are in EDT time to prevent confusion due to time zone crossing. See the SWA1834 flight status page for this flight to view local times or setup timezone preferences in your user account.

Time Position Orientation Groundspeed Altitude Reporting Facility
EDT Latitude Longitude Course Direction KTS MPH feet Rate Location/Type
09:22AM 38.6667 -121.6000 130° Southeast 151 174 900  Level Northern Cal TRACON
09:23AM 38.6333 -121.5500 90° East 213 245 2,700 2,280 Climbing Northern Cal TRACON
09:24AM 38.6333 -121.4500 90° East 267 307 5,800 3,000 Climbing Northern Cal TRACON
09:26AM 38.6322 -121.2792 91° East 292 336 10,900 2,880 Climbing Oakland Center
09:27AM 38.6303 -121.1569 87° East 314 361 13,700 2,700 Climbing Oakland Center
09:28AM 38.6347 -121.0319 91° East 354 407 16,300 2,700 Climbing Oakland Center
09:29AM 38.6325 -120.8964 87° East 372 428 19,100 2,520 Climbing Oakland Center
09:30AM 38.6386 -120.7528 82° East 382 440 21,400 2,160 Climbing Oakland Center
09:31AM 38.6550 -120.6039 80° East 409 471 23,500 2,160 Climbing Oakland Center
09:32AM 38.6753 -120.4494 83° East 428 493 25,800 2,160 Climbing Oakland Center
09:33AM 38.6911 -120.2897 81° East 439 505 27,900 1,920 Climbing Oakland Center
09:34AM 38.7108 -120.1297 82° East 447 514 29,700 1,560 Climbing Oakland Center
09:35AM 38.7283 -119.9644 84° East 452 520 31,100 1,680 Climbing Oakland Center
09:36AM 38.7433 -119.7858 81° East 462 532 33,100 1,860 Climbing Oakland Center
09:37AM 38.7625 -119.6206 82° East 462 532 34,900 1,380 Climbing Oakland Center
09:38AM 38.7792 -119.4578 83° East 462 532 36,000 480 Climbing Oakland Center
09:39AM 38.7975 -119.2656 82° East 462 532 36,000 480 Level Oakland Center
09:40AM 38.8158 -119.1025 82° East 462 532 37,100 1,260 Climbing Oakland Center
09:41AM 38.8319 -118.9475 84° East 457 526 38,600 900 Climbing Oakland Center
09:42AM 38.8458 -118.7897 82° East 445 512 39,000 180 Climbing Oakland Center
09:43AM 38.8617 -118.6344 83° East 445 512 39,000  Level Oakland Center
09:44AM 38.8772 -118.4794 83° East 445 512 39,000  Level Oakland Center
09:45AM 38.8925 -118.3214 82° East 445 512 39,000  Level Oakland Center
09:46AM 38.9097 -118.1606 83° East 450 518 39,000  Level Oakland Center
09:47AM 38.9228 -118.0242 84° East 448 516 39,000  Level Salt Lake Center
09:48AM 38.9367 -117.8647 84° East 448 516 39,000  Level Salt Lake Center
09:49AM 38.9506 -117.7042 83° East 449 517 39,000  Level Salt Lake Center
09:50AM 38.9683 -117.5119 84° East 450 518 39,000  Level Salt Lake Center
09:51AM 38.9822 -117.3514 83° East 450 518 39,000  Level Salt Lake Center
09:52AM 38.9964 -117.1903 84° East 451 519 39,000  Level Salt Lake Center
09:53AM 39.0103 -117.0286 84° East 453 521 39,000  Level Salt Lake Center
09:54AM 39.0233 -116.8669 84° East 453 521 39,000  Level Salt Lake Center
09:55AM 39.0361 -116.7064 84° East 452 520 39,000  Level Salt Lake Center
09:56AM 39.0494 -116.5453 84° East 452 520 39,000  Level Salt Lake Center
09:57AM 39.0614 -116.3850 85° East 450 518 39,000  Level Salt Lake Center
09:58AM 39.0733 -116.2228 84° East 453 521 39,000  Level Salt Lake Center
09:59AM 39.0861 -116.0611 84° East 453 521 39,000  Level Salt Lake Center
10:00AM 39.1008 -115.8675 84° East 453 521 39,000  Level Salt Lake Center
10:01AM 39.1139 -115.7042 85° East 456 525 39,000  Level Salt Lake Center
10:02AM 39.1253 -115.5419 85° East 455 524 39,000  Level Salt Lake Center
10:04AM 39.1358 -115.3817 84° East 459 528 39,000  Level Salt Lake Center
10:05AM 39.1489 -115.2144 85° East 462 532 39,000  Level Salt Lake Center
10:06AM 39.1600 -115.0492 86° East 459 528 39,000  Level Salt Lake Center
10:07AM 39.1694 -114.8744 85° East 456 525 39,000  Level Salt Lake Center
10:08AM 39.1800 -114.7181 85° East 458 527 39,000  Level Salt Lake Center
10:09AM 39.1917 -114.5356 85° East 459 528 39,000  Level Salt Lake Center
10:10AM 39.2011 -114.3794 84° East 457 526 39,000  Level Salt Lake Center
10:11AM 39.2139 -114.2178 86° East 463 533 39,000  Level Salt Lake Center
10:12AM 39.2236 -114.0522 86° East 459 528 39,000  Level Salt Lake Center
10:13AM 39.2328 -113.8861 86° East 457 526 39,000  Level Salt Lake Center
10:14AM 39.2436 -113.6875 86° East 455 524 39,000  Level Salt Lake Center
10:15AM 39.2525 -113.5211 86° East 456 525 39,000  Level Salt Lake Center
10:16AM 39.2611 -113.3550 86° East 456 525 39,000  Level Salt Lake Center
10:17AM 39.2697 -113.1892 86° East 456 525 39,000  Level Salt Lake Center
10:18AM 39.2783 -113.0217 86° East 458 527 39,000  Level Salt Lake Center
10:19AM 39.2861 -112.8561 86° East 457 526 39,000  Level Salt Lake Center
10:20AM 39.2942 -112.6903 86° East 456 525 39,000  Level Salt Lake Center
10:21AM 39.3025 -112.5194 77° East 452 520 39,000  Level Salt Lake Center
10:22AM 39.3311 -112.3611 77° East 451 519 39,000  Level Salt Lake Center
10:23AM 39.3592 -112.2028 77° East 452 520 39,000  Level Salt Lake Center
10:24AM 39.3883 -112.0447 76° East 449 517 39,000  Level Salt Lake Center
10:25AM 39.4175 -111.8875 76° East 448 516 39,000  Level Salt Lake Center
10:26AM 39.4472 -111.7297 77° East 449 517 39,000  Level Salt Lake Center
10:27AM 39.4756 -111.5717 77° East 448 516 39,000  Level Salt Lake Center
10:28AM 39.5086 -111.3853 77° East 452 520 39,000  Level Salt Lake Center
10:29AM 39.5339 -111.2403 77° East 454 522 39,000  Level Salt Lake Center
10:30AM 39.5658 -111.0631 77° East 453 521 39,000  Level Salt Lake Center
10:31AM 39.5925 -110.9100 77° East 454 522 39,000  Level Salt Lake Center
10:32AM 39.6231 -110.7311 77° East 455 524 39,000  Level Salt Lake Center
10:33AM 39.6494 -110.5769 78° East 457 526 39,000  Level Salt Lake Center
10:34AM 39.6803 -110.3947 78° East 461 531 39,000  Level Salt Lake Center
10:35AM 39.7064 -110.2375 78° East 464 534 39,000  Level Salt Lake Center
10:36AM 39.7372 -110.0556 78° East 463 533 39,000  Level Salt Lake Center
10:38AM 39.7628 -109.9008 78° East 460 529 39,000  Level Salt Lake Center
10:39AM 39.7919 -109.7200 78° East 458 527 39,000  Level Salt Lake Center
10:40AM 39.8164 -109.5656 78° East 456 525 39,000  Level Salt Lake Center
10:41AM 39.8414 -109.4106 78° East 457 526 39,000  Level Salt Lake Center
10:42AM 39.8706 -109.2283 78° East 458 527 39,000  Level Salt Lake Center
10:43AM 39.8956 -109.0694 78° East 462 532 39,000  Level Salt Lake Center
10:44AM 39.9247 -108.8819 79° East 467 537 39,000  Level Salt Lake Center
10:45AM 39.9489 -108.7203 79° East 469 540 39,000  Level Salt Lake Center
10:46AM 39.9775 -108.5317 79° East 471 542 39,000  Level Salt Lake Center
10:47AM 40.0094 -108.3158 79° East 470 541 39,000  Level Denver Center
10:48AM 40.0331 -108.1547 79° East 471 542 39,000  Level Denver Center
10:49AM 40.0606 -107.9669 75° East 471 542 39,000  Level Denver Center
10:50AM 40.0936 -107.8092 79° East 466 536 39,000  Level Denver Center
10:51AM 40.1214 -107.6186 81° East 477 549 39,000  Level Denver Center
10:52AM 40.1411 -107.4528 81° East 480 552 39,000  Level Denver Center
10:53AM 40.1633 -107.2614 82° East 479 551 39,000  Level Denver Center
10:54AM 40.1819 -107.0972 82° East 477 549 39,000  Level Denver Center
10:55AM 40.2028 -106.9031 81° East 481 554 39,000  Level Denver Center
10:57AM 40.2208 -106.7447 81° East 481 554 39,000 -1,260 Level Denver Center
10:58AM 40.2453 -106.5406 83° East 474 545 36,400 -2,280 Descending Denver Center
10:59AM 40.2597 -106.3836 82° East 475 547 34,300 -2,880 Descending Denver Center
11:00AM 40.2803 -106.1961 83° East 468 539 30,500 -3,300 Descending Denver Center
11:01AM 40.2956 -106.0350 82° East 458 527 27,500 -2,820 Descending Denver Center
11:02AM 40.3133 -105.8714 83° East 450 518 24,700 -3,060 Descending Denver Center
11:03AM 40.3322 -105.6814 83° East 446 513 21,200 -2,760 Descending Denver Center
11:04AM 40.3475 -105.5217 107° East 440 506 19,000 -1,260 Descending Denver Center
11:05AM 40.3164 -105.3867 130° Southeast 371 427 18,600 -900 Descending Denver Center
11:06AM 40.2514 -105.2836 104° East 365 420 17,200 -1,440 Descending Denver Center
11:07AM 40.2253 -105.1475 104° East 361 415 15,600 -1,680 Descending Denver Center
11:08AM 40.2014 -105.0264 104° East 347 399 13,700 -1,920 Descending Denver Center
11:09AM 40.1775 -104.9025 133° Southeast 332 382 11,600 -1,800 Descending Denver Center
11:10AM 40.1167 -104.8167 128° Southeast 311 358 10,000 -1,380 Descending Denver TRACON
11:11AM 40.0667 -104.7333 143° Southeast 279 321 8,800 -1,140 Descending Denver TRACON
11:12AM 40.0167 -104.6833 180° South 245 282 7,800 -1,080 Descending Denver TRACON
11:13AM 39.9667 -104.6833 180° South 187 215 6,700 -1,080 Descending Denver TRACON
11:14AM 39.9167 -104.6833 172° South 159 183 5,800 -1,020 Descending Denver TRACON
11:23AM 38.8315 -104.4857 172° South  Level Estimated